sensor_id;sensor_type;location;lat;lon;timestamp;temperature;humidity
37806;DHT22;25082;50.870;0.022;2022-07-12T00:01:56;23.00;62.30
37806;DHT22;25082;50.870;0.022;2022-07-12T00:04:22;23.00;62.30
37806;DHT22;25082;50.870;0.022;2022-07-12T00:06:48;23.00;62.30
37806;DHT22;25082;50.870;0.022;2022-07-12T00:09:15;23.00;62.30
37806;DHT22;25082;50.870;0.022;2022-07-12T00:11:41;23.00;62.30
37806;DHT22;25082;50.870;0.022;2022-07-12T00:14:07;22.90;62.30
37806;DHT22;25082;50.870;0.022;2022-07-12T00:16:35;22.90;62.40
37806;DHT22;25082;50.870;0.022;2022-07-12T00:19:01;22.90;62.40
37806;DHT22;25082;50.870;0.022;2022-07-12T00:21:27;23.00;62.50
37806;DHT22;25082;50.870;0.022;2022-07-12T00:23:52;22.90;62.40
37806;DHT22;25082;50.870;0.022;2022-07-12T00:26:18;22.90;62.40
37806;DHT22;25082;50.870;0.022;2022-07-12T00:28:45;22.90;62.50
37806;DHT22;25082;50.870;0.022;2022-07-12T00:31:10;22.90;62.50
37806;DHT22;25082;50.870;0.022;2022-07-12T00:33:36;22.90;62.50
37806;DHT22;25082;50.870;0.022;2022-07-12T00:36:03;22.90;62.40
37806;DHT22;25082;50.870;0.022;2022-07-12T00:38:29;22.90;62.40
37806;DHT22;25082;50.870;0.022;2022-07-12T00:40:54;22.90;62.50
37806;DHT22;25082;50.870;0.022;2022-07-12T00:43:20;22.90;62.50
37806;DHT22;25082;50.870;0.022;2022-07-12T00:45:46;22.90;62.60
37806;DHT22;25082;50.870;0.022;2022-07-12T00:48:12;22.90;62.60
37806;DHT22;25082;50.870;0.022;2022-07-12T00:50:39;22.90;62.70
37806;DHT22;25082;50.870;0.022;2022-07-12T00:53:05;22.90;62.60
37806;DHT22;25082;50.870;0.022;2022-07-12T00:55:31;22.90;62.70
37806;DHT22;25082;50.870;0.022;2022-07-12T00:57:57;22.90;62.70
37806;DHT22;25082;50.870;0.022;2022-07-12T01:00:24;22.90;62.70
37806;DHT22;25082;50.870;0.022;2022-07-12T01:02:55;22.90;62.70
37806;DHT22;25082;50.870;0.022;2022-07-12T01:05:21;22.80;62.60
37806;DHT22;25082;50.870;0.022;2022-07-12T01:07:46;22.90;62.80
37806;DHT22;25082;50.870;0.022;2022-07-12T01:10:13;22.90;62.80
37806;DHT22;25082;50.870;0.022;2022-07-12T01:12:39;22.90;62.80
37806;DHT22;25082;50.870;0.022;2022-07-12T01:15:06;22.90;62.80
37806;DHT22;25082;50.870;0.022;2022-07-12T01:17:32;22.80;62.70
37806;DHT22;25082;50.870;0.022;2022-07-12T01:19:59;22.90;62.80
37806;DHT22;25082;50.870;0.022;2022-07-12T01:22:31;22.90;62.80
37806;DHT22;25082;50.870;0.022;2022-07-12T01:24:59;22.80;62.70
37806;DHT22;25082;50.870;0.022;2022-07-12T01:27:26;22.90;62.80
37806;DHT22;25082;50.870;0.022;2022-07-12T01:29:52;22.90;62.80
37806;DHT22;25082;50.870;0.022;2022-07-12T01:32:18;22.80;62.80
37806;DHT22;25082;50.870;0.022;2022-07-12T01:37:24;22.90;62.90
37806;DHT22;25082;50.870;0.022;2022-07-12T01:39:54;22.80;62.90
37806;DHT22;25082;50.870;0.022;2022-07-12T01:42:22;22.80;62.90
37806;DHT22;25082;50.870;0.022;2022-07-12T01:44:49;22.80;62.90
37806;DHT22;25082;50.870;0.022;2022-07-12T01:47:19;22.80;63.00
37806;DHT22;25082;50.870;0.022;2022-07-12T01:49:45;22.80;63.00
37806;DHT22;25082;50.870;0.022;2022-07-12T01:52:11;22.80;63.60
37806;DHT22;25082;50.870;0.022;2022-07-12T01:54:37;22.80;63.00
37806;DHT22;25082;50.870;0.022;2022-07-12T01:57:04;22.80;63.00
37806;DHT22;25082;50.870;0.022;2022-07-12T01:59:30;22.80;63.00
37806;DHT22;25082;50.870;0.022;2022-07-12T02:01:57;22.80;63.00
37806;DHT22;25082;50.870;0.022;2022-07-12T02:04:23;22.80;63.00
37806;DHT22;25082;50.870;0.022;2022-07-12T02:06:49;22.80;63.00
37806;DHT22;25082;50.870;0.022;2022-07-12T02:09:15;22.80;63.00
37806;DHT22;25082;50.870;0.022;2022-07-12T02:11:42;22.70;63.10
37806;DHT22;25082;50.870;0.022;2022-07-12T02:14:08;22.80;63.10
37806;DHT22;25082;50.870;0.022;2022-07-12T02:16:34;22.70;63.10
37806;DHT22;25082;50.870;0.022;2022-07-12T02:19:00;22.70;63.10
37806;DHT22;25082;50.870;0.022;2022-07-12T02:21:26;22.70;63.20
37806;DHT22;25082;50.870;0.022;2022-07-12T02:23:53;22.70;63.20
37806;DHT22;25082;50.870;0.022;2022-07-12T02:26:19;22.70;63.20
37806;DHT22;25082;50.870;0.022;2022-07-12T02:28:44;22.70;63.20
37806;DHT22;25082;50.870;0.022;2022-07-12T02:31:10;22.70;63.30
37806;DHT22;25082;50.870;0.022;2022-07-12T02:33:36;22.70;63.30
37806;DHT22;25082;50.870;0.022;2022-07-12T02:36:02;22.70;63.30
37806;DHT22;25082;50.870;0.022;2022-07-12T02:38:28;22.70;63.30
37806;DHT22;25082;50.870;0.022;2022-07-12T02:40:54;22.70;63.40
37806;DHT22;25082;50.870;0.022;2022-07-12T02:43:29;22.70;63.30
37806;DHT22;25082;50.870;0.022;2022-07-12T02:46:03;22.70;63.40
37806;DHT22;25082;50.870;0.022;2022-07-12T02:48:30;22.70;63.40
37806;DHT22;25082;50.870;0.022;2022-07-12T02:50:55;22.70;63.40
37806;DHT22;25082;50.870;0.022;2022-07-12T02:53:21;22.70;63.40
37806;DHT22;25082;50.870;0.022;2022-07-12T02:55:47;22.70;63.40
37806;DHT22;25082;50.870;0.022;2022-07-12T02:58:13;22.70;63.40
37806;DHT22;25082;50.870;0.022;2022-07-12T03:00:39;22.70;63.50
37806;DHT22;25082;50.870;0.022;2022-07-12T03:03:06;22.70;63.50
37806;DHT22;25082;50.870;0.022;2022-07-12T03:05:35;22.70;63.50
37806;DHT22;25082;50.870;0.022;2022-07-12T03:08:02;22.70;63.50
37806;DHT22;25082;50.870;0.022;2022-07-12T03:10:28;22.70;63.50
37806;DHT22;25082;50.870;0.022;2022-07-12T03:12:54;22.70;63.50
37806;DHT22;25082;50.870;0.022;2022-07-12T03:15:20;22.70;63.50
37806;DHT22;25082;50.870;0.022;2022-07-12T03:17:46;22.60;63.40
37806;DHT22;25082;50.870;0.022;2022-07-12T03:20:12;22.60;63.50
37806;DHT22;25082;50.870;0.022;2022-07-12T03:22:40;22.60;63.50
37806;DHT22;25082;50.870;0.022;2022-07-12T03:25:07;22.60;63.60
37806;DHT22;25082;50.870;0.022;2022-07-12T03:27:34;22.60;63.60
37806;DHT22;25082;50.870;0.022;2022-07-12T03:30:00;22.60;63.60
37806;DHT22;25082;50.870;0.022;2022-07-12T03:32:26;22.60;63.70
37806;DHT22;25082;50.870;0.022;2022-07-12T03:34:52;22.60;63.60
37806;DHT22;25082;50.870;0.022;2022-07-12T03:37:18;22.60;63.60
37806;DHT22;25082;50.870;0.022;2022-07-12T03:39:44;22.60;63.70
37806;DHT22;25082;50.870;0.022;2022-07-12T03:42:09;22.60;63.70
37806;DHT22;25082;50.870;0.022;2022-07-12T03:44:38;22.60;63.70
37806;DHT22;25082;50.870;0.022;2022-07-12T03:47:04;22.60;63.80
37806;DHT22;25082;50.870;0.022;2022-07-12T03:49:29;22.60;63.80
37806;DHT22;25082;50.870;0.022;2022-07-12T03:51:55;22.60;63.80
37806;DHT22;25082;50.870;0.022;2022-07-12T03:54:21;22.60;63.80
37806;DHT22;25082;50.870;0.022;2022-07-12T03:56:47;22.60;63.80
37806;DHT22;25082;50.870;0.022;2022-07-12T03:59:31;22.60;63.90
37806;DHT22;25082;50.870;0.022;2022-07-12T04:01:57;22.60;63.90
37806;DHT22;25082;50.870;0.022;2022-07-12T04:04:23;22.60;63.80
37806;DHT22;25082;50.870;0.022;2022-07-12T04:06:49;22.60;63.90
37806;DHT22;25082;50.870;0.022;2022-07-12T04:09:15;22.60;63.90
37806;DHT22;25082;50.870;0.022;2022-07-12T04:11:41;22.60;63.90
37806;DHT22;25082;50.870;0.022;2022-07-12T04:14:07;22.60;63.90
37806;DHT22;25082;50.870;0.022;2022-07-12T04:16:33;22.60;63.90
37806;DHT22;25082;50.870;0.022;2022-07-12T04:18:58;22.60;63.90
37806;DHT22;25082;50.870;0.022;2022-07-12T04:21:24;22.60;64.00
37806;DHT22;25082;50.870;0.022;2022-07-12T04:23:50;22.60;63.90
37806;DHT22;25082;50.870;0.022;2022-07-12T04:26:16;22.60;63.90
37806;DHT22;25082;50.870;0.022;2022-07-12T04:28:42;22.60;64.00
37806;DHT22;25082;50.870;0.022;2022-07-12T04:31:07;22.50;63.90
37806;DHT22;25082;50.870;0.022;2022-07-12T04:33:35;22.50;64.00
37806;DHT22;25082;50.870;0.022;2022-07-12T04:36:01;22.60;64.00
37806;DHT22;25082;50.870;0.022;2022-07-12T04:38:27;22.50;63.90
37806;DHT22;25082;50.870;0.022;2022-07-12T04:40:53;22.50;63.90
37806;DHT22;25082;50.870;0.022;2022-07-12T04:43:18;22.50;63.90
37806;DHT22;25082;50.870;0.022;2022-07-12T04:45:44;22.50;64.00
37806;DHT22;25082;50.870;0.022;2022-07-12T04:48:11;22.50;63.90
37806;DHT22;25082;50.870;0.022;2022-07-12T04:50:37;22.50;64.00
37806;DHT22;25082;50.870;0.022;2022-07-12T04:53:03;22.50;64.00
37806;DHT22;25082;50.870;0.022;2022-07-12T04:55:29;22.50;63.90
37806;DHT22;25082;50.870;0.022;2022-07-12T04:57:55;22.50;64.00
37806;DHT22;25082;50.870;0.022;2022-07-12T05:00:22;22.50;63.90
37806;DHT22;25082;50.870;0.022;2022-07-12T05:02:48;22.50;63.90
37806;DHT22;25082;50.870;0.022;2022-07-12T05:05:14;22.50;63.90
37806;DHT22;25082;50.870;0.022;2022-07-12T05:07:40;22.60;64.10
37806;DHT22;25082;50.870;0.022;2022-07-12T05:10:06;22.50;64.00
37806;DHT22;25082;50.870;0.022;2022-07-12T05:12:34;22.50;64.00
37806;DHT22;25082;50.870;0.022;2022-07-12T05:15:00;22.50;64.10
37806;DHT22;25082;50.870;0.022;2022-07-12T05:17:26;22.50;64.00
37806;DHT22;25082;50.870;0.022;2022-07-12T05:19:52;22.50;64.00
37806;DHT22;25082;50.870;0.022;2022-07-12T05:22:17;22.50;64.10
37806;DHT22;25082;50.870;0.022;2022-07-12T05:24:43;22.50;64.10
37806;DHT22;25082;50.870;0.022;2022-07-12T05:27:09;22.50;64.00
37806;DHT22;25082;50.870;0.022;2022-07-12T05:29:35;22.50;64.10
37806;DHT22;25082;50.870;0.022;2022-07-12T05:32:01;22.50;64.10
37806;DHT22;25082;50.870;0.022;2022-07-12T05:34:27;22.50;64.10
37806;DHT22;25082;50.870;0.022;2022-07-12T05:36:53;22.50;64.20
37806;DHT22;25082;50.870;0.022;2022-07-12T05:39:19;22.50;64.10
37806;DHT22;25082;50.870;0.022;2022-07-12T05:41:45;22.50;64.10
37806;DHT22;25082;50.870;0.022;2022-07-12T05:44:12;22.50;64.10
37806;DHT22;25082;50.870;0.022;2022-07-12T05:46:38;22.50;64.20
37806;DHT22;25082;50.870;0.022;2022-07-12T05:49:06;22.50;64.20
37806;DHT22;25082;50.870;0.022;2022-07-12T05:51:32;22.50;64.20
37806;DHT22;25082;50.870;0.022;2022-07-12T05:54:17;22.50;64.20
37806;DHT22;25082;50.870;0.022;2022-07-12T05:56:42;22.50;64.20
37806;DHT22;25082;50.870;0.022;2022-07-12T05:59:08;22.50;64.20
37806;DHT22;25082;50.870;0.022;2022-07-12T06:01:34;22.50;64.20
37806;DHT22;25082;50.870;0.022;2022-07-12T06:04:00;22.50;64.30
37806;DHT22;25082;50.870;0.022;2022-07-12T06:06:27;22.50;64.30
37806;DHT22;25082;50.870;0.022;2022-07-12T06:08:52;22.50;64.30
37806;DHT22;25082;50.870;0.022;2022-07-12T06:11:18;22.50;64.30
37806;DHT22;25082;50.870;0.022;2022-07-12T06:13:44;22.50;64.30
37806;DHT22;25082;50.870;0.022;2022-07-12T06:16:10;22.50;64.30
37806;DHT22;25082;50.870;0.022;2022-07-12T06:18:37;22.50;64.30
37806;DHT22;25082;50.870;0.022;2022-07-12T06:21:03;22.50;64.30
37806;DHT22;25082;50.870;0.022;2022-07-12T06:23:29;22.50;64.30
37806;DHT22;25082;50.870;0.022;2022-07-12T06:25:55;22.50;64.40
37806;DHT22;25082;50.870;0.022;2022-07-12T06:28:21;22.50;64.40
37806;DHT22;25082;50.870;0.022;2022-07-12T06:30:46;22.50;64.30
37806;DHT22;25082;50.870;0.022;2022-07-12T06:33:12;22.50;64.40
37806;DHT22;25082;50.870;0.022;2022-07-12T06:35:38;22.50;64.40
37806;DHT22;25082;50.870;0.022;2022-07-12T06:38:04;22.50;64.30
37806;DHT22;25082;50.870;0.022;2022-07-12T06:40:30;22.50;64.40
37806;DHT22;25082;50.870;0.022;2022-07-12T06:42:56;22.50;64.40
37806;DHT22;25082;50.870;0.022;2022-07-12T06:45:22;22.50;64.40
37806;DHT22;25082;50.870;0.022;2022-07-12T06:47:48;22.50;64.40
37806;DHT22;25082;50.870;0.022;2022-07-12T06:50:14;22.40;64.30
37806;DHT22;25082;50.870;0.022;2022-07-12T06:52:40;22.50;64.40
37806;DHT22;25082;50.870;0.022;2022-07-12T06:55:07;22.40;64.30
37806;DHT22;25082;50.870;0.022;2022-07-12T06:57:32;22.50;64.30
37806;DHT22;25082;50.870;0.022;2022-07-12T06:59:59;22.50;64.40
37806;DHT22;25082;50.870;0.022;2022-07-12T07:02:25;22.50;64.40
37806;DHT22;25082;50.870;0.022;2022-07-12T07:04:51;22.50;64.40
37806;DHT22;25082;50.870;0.022;2022-07-12T07:07:17;22.50;64.40
37806;DHT22;25082;50.870;0.022;2022-07-12T07:09:43;22.40;64.40
37806;DHT22;25082;50.870;0.022;2022-07-12T07:12:09;22.50;64.50
37806;DHT22;25082;50.870;0.022;2022-07-12T07:14:35;22.50;64.40
37806;DHT22;25082;50.870;0.022;2022-07-12T07:17:01;22.50;64.50
37806;DHT22;25082;50.870;0.022;2022-07-12T07:19:26;22.50;64.60
37806;DHT22;25082;50.870;0.022;2022-07-12T07:21:53;22.50;64.60
37806;DHT22;25082;50.870;0.022;2022-07-12T07:24:22;22.50;64.60
37806;DHT22;25082;50.870;0.022;2022-07-12T07:26:48;22.50;65.10
37806;DHT22;25082;50.870;0.022;2022-07-12T07:29:14;22.50;64.60
37806;DHT22;25082;50.870;0.022;2022-07-12T07:31:59;22.50;64.60
37806;DHT22;25082;50.870;0.022;2022-07-12T07:34:24;22.50;64.60
37806;DHT22;25082;50.870;0.022;2022-07-12T07:36:51;22.50;64.50
37806;DHT22;25082;50.870;0.022;2022-07-12T07:39:17;22.50;64.40
37806;DHT22;25082;50.870;0.022;2022-07-12T07:41:43;22.50;64.50
37806;DHT22;25082;50.870;0.022;2022-07-12T07:44:09;22.50;64.40
37806;DHT22;25082;50.870;0.022;2022-07-12T07:46:34;22.50;64.40
37806;DHT22;25082;50.870;0.022;2022-07-12T07:49:00;22.50;64.40
37806;DHT22;25082;50.870;0.022;2022-07-12T07:51:26;22.50;64.50
37806;DHT22;25082;50.870;0.022;2022-07-12T07:53:52;22.50;64.50
37806;DHT22;25082;50.870;0.022;2022-07-12T07:56:18;22.50;64.50
37806;DHT22;25082;50.870;0.022;2022-07-12T07:58:43;22.50;64.50
37806;DHT22;25082;50.870;0.022;2022-07-12T08:01:09;22.50;64.60
37806;DHT22;25082;50.870;0.022;2022-07-12T08:03:35;22.50;64.50
37806;DHT22;25082;50.870;0.022;2022-07-12T08:06:01;22.50;64.60
37806;DHT22;25082;50.870;0.022;2022-07-12T08:08:29;22.50;64.50
37806;DHT22;25082;50.870;0.022;2022-07-12T08:10:56;22.50;64.50
37806;DHT22;25082;50.870;0.022;2022-07-12T08:13:22;22.60;64.60
37806;DHT22;25082;50.870;0.022;2022-07-12T08:15:48;22.50;64.60
37806;DHT22;25082;50.870;0.022;2022-07-12T08:18:14;22.60;64.60
37806;DHT22;25082;50.870;0.022;2022-07-12T08:20:40;22.50;64.50
37806;DHT22;25082;50.870;0.022;2022-07-12T08:23:06;22.50;64.50
37806;DHT22;25082;50.870;0.022;2022-07-12T08:25:32;22.50;64.50
37806;DHT22;25082;50.870;0.022;2022-07-12T08:27:58;22.60;64.60
37806;DHT22;25082;50.870;0.022;2022-07-12T08:30:23;22.60;64.60
37806;DHT22;25082;50.870;0.022;2022-07-12T08:32:49;22.60;64.60
37806;DHT22;25082;50.870;0.022;2022-07-12T08:35:15;22.60;64.50
37806;DHT22;25082;50.870;0.022;2022-07-12T08:37:43;22.60;64.70
37806;DHT22;25082;50.870;0.022;2022-07-12T08:40:09;22.60;64.80
37806;DHT22;25082;50.870;0.022;2022-07-12T08:42:39;22.60;64.70
37806;DHT22;25082;50.870;0.022;2022-07-12T08:45:06;22.60;64.80
37806;DHT22;25082;50.870;0.022;2022-07-12T08:47:31;22.60;64.80
37806;DHT22;25082;50.870;0.022;2022-07-12T08:50:20;22.60;65.00
37806;DHT22;25082;50.870;0.022;2022-07-12T08:52:48;22.60;64.80
37806;DHT22;25082;50.870;0.022;2022-07-12T08:57:52;22.60;65.00
37806;DHT22;25082;50.870;0.022;2022-07-12T09:00:18;22.60;64.90
37806;DHT22;25082;50.870;0.022;2022-07-12T09:05:16;22.70;65.00
37806;DHT22;25082;50.870;0.022;2022-07-12T09:07:42;22.70;65.10
37806;DHT22;25082;50.870;0.022;2022-07-12T09:10:10;22.70;65.20
37806;DHT22;25082;50.870;0.022;2022-07-12T09:12:36;22.70;65.30
37806;DHT22;25082;50.870;0.022;2022-07-12T09:15:15;22.70;65.40
37806;DHT22;25082;50.870;0.022;2022-07-12T09:20:15;22.70;65.20
37806;DHT22;25082;50.870;0.022;2022-07-12T09:22:55;22.70;65.30
37806;DHT22;25082;50.870;0.022;2022-07-12T09:25:21;22.70;65.20
37806;DHT22;25082;50.870;0.022;2022-07-12T09:27:50;22.70;65.30
37806;DHT22;25082;50.870;0.022;2022-07-12T09:30:16;22.70;65.30
37806;DHT22;25082;50.870;0.022;2022-07-12T09:33:01;22.70;65.40
37806;DHT22;25082;50.870;0.022;2022-07-12T09:35:58;22.70;65.50
37806;DHT22;25082;50.870;0.022;2022-07-12T09:41:01;22.70;65.60
37806;DHT22;25082;50.870;0.022;2022-07-12T09:43:27;22.80;65.60
37806;DHT22;25082;50.870;0.022;2022-07-12T09:45:54;22.80;65.70
37806;DHT22;25082;50.870;0.022;2022-07-12T09:48:20;22.80;65.80
37806;DHT22;25082;50.870;0.022;2022-07-12T09:50:50;22.80;65.80
37806;DHT22;25082;50.870;0.022;2022-07-12T09:53:21;22.80;65.80
37806;DHT22;25082;50.870;0.022;2022-07-12T09:55:50;22.80;65.80
37806;DHT22;25082;50.870;0.022;2022-07-12T09:58:23;22.80;65.80
37806;DHT22;25082;50.870;0.022;2022-07-12T10:00:50;22.80;65.80
37806;DHT22;25082;50.870;0.022;2022-07-12T10:03:20;22.80;65.80
37806;DHT22;25082;50.870;0.022;2022-07-12T10:05:46;22.80;65.70
37806;DHT22;25082;50.870;0.022;2022-07-12T10:08:12;22.80;65.70
37806;DHT22;25082;50.870;0.022;2022-07-12T10:10:38;22.80;65.80
37806;DHT22;25082;50.870;0.022;2022-07-12T10:13:05;22.80;65.80
37806;DHT22;25082;50.870;0.022;2022-07-12T10:15:31;22.80;65.90
37806;DHT22;25082;50.870;0.022;2022-07-12T10:18:00;22.80;65.80
37806;DHT22;25082;50.870;0.022;2022-07-12T10:20:27;22.80;66.10
37806;DHT22;25082;50.870;0.022;2022-07-12T10:25:42;22.80;66.30
37806;DHT22;25082;50.870;0.022;2022-07-12T10:28:08;22.90;66.50
37806;DHT22;25082;50.870;0.022;2022-07-12T10:30:48;22.90;66.60
37806;DHT22;25082;50.870;0.022;2022-07-12T10:33:21;22.90;66.60
37806;DHT22;25082;50.870;0.022;2022-07-12T10:38:27;22.90;66.90
37806;DHT22;25082;50.870;0.022;2022-07-12T10:40:53;22.90;66.90
37806;DHT22;25082;50.870;0.022;2022-07-12T10:43:29;22.90;67.10
37806;DHT22;25082;50.870;0.022;2022-07-12T10:46:17;22.90;67.20
37806;DHT22;25082;50.870;0.022;2022-07-12T10:48:45;22.90;67.30
37806;DHT22;25082;50.870;0.022;2022-07-12T10:51:15;22.90;67.10
37806;DHT22;25082;50.870;0.022;2022-07-12T10:53:42;23.00;67.40
37806;DHT22;25082;50.870;0.022;2022-07-12T10:56:28;23.00;67.50
37806;DHT22;25082;50.870;0.022;2022-07-12T10:58:58;23.00;67.50
37806;DHT22;25082;50.870;0.022;2022-07-12T11:01:29;23.00;67.50
37806;DHT22;25082;50.870;0.022;2022-07-12T11:04:06;23.00;67.30
37806;DHT22;25082;50.870;0.022;2022-07-12T11:06:37;23.00;67.60
37806;DHT22;25082;50.870;0.022;2022-07-12T11:09:13;23.00;67.80
37806;DHT22;25082;50.870;0.022;2022-07-12T11:11:45;23.00;68.00
37806;DHT22;25082;50.870;0.022;2022-07-12T11:16:50;23.10;67.80
37806;DHT22;25082;50.870;0.022;2022-07-12T11:19:21;23.10;67.60
37806;DHT22;25082;50.870;0.022;2022-07-12T11:21:48;23.10;67.70
37806;DHT22;25082;50.870;0.022;2022-07-12T11:24:21;23.10;66.80
37806;DHT22;25082;50.870;0.022;2022-07-12T11:26:48;23.10;66.70
37806;DHT22;25082;50.870;0.022;2022-07-12T11:29:14;23.10;66.60
37806;DHT22;25082;50.870;0.022;2022-07-12T11:31:40;23.10;66.70
37806;DHT22;25082;50.870;0.022;2022-07-12T11:34:06;23.10;66.80
37806;DHT22;25082;50.870;0.022;2022-07-12T11:36:33;23.10;66.50
37806;DHT22;25082;50.870;0.022;2022-07-12T11:38:59;23.10;66.30
37806;DHT22;25082;50.870;0.022;2022-07-12T11:41:26;23.10;66.30
37806;DHT22;25082;50.870;0.022;2022-07-12T11:43:51;23.10;66.60
37806;DHT22;25082;50.870;0.022;2022-07-12T11:46:17;23.20;66.80
37806;DHT22;25082;50.870;0.022;2022-07-12T11:48:43;23.20;66.80
37806;DHT22;25082;50.870;0.022;2022-07-12T11:51:13;23.20;67.20
37806;DHT22;25082;50.870;0.022;2022-07-12T11:53:40;23.20;67.10
37806;DHT22;25082;50.870;0.022;2022-07-12T11:56:07;23.20;66.80
37806;DHT22;25082;50.870;0.022;2022-07-12T11:58:34;23.30;66.80
37806;DHT22;25082;50.870;0.022;2022-07-12T12:01:11;23.30;66.90
37806;DHT22;25082;50.870;0.022;2022-07-12T12:03:45;23.30;67.00
37806;DHT22;25082;50.870;0.022;2022-07-12T12:06:11;23.40;67.10
37806;DHT22;25082;50.870;0.022;2022-07-12T12:08:37;23.40;67.10
37806;DHT22;25082;50.870;0.022;2022-07-12T12:11:03;23.40;66.80
37806;DHT22;25082;50.870;0.022;2022-07-12T12:13:30;23.40;66.90
37806;DHT22;25082;50.870;0.022;2022-07-12T12:16:03;23.40;66.20
37806;DHT22;25082;50.870;0.022;2022-07-12T12:18:33;23.50;66.20
37806;DHT22;25082;50.870;0.022;2022-07-12T12:23:31;23.50;66.20
37806;DHT22;25082;50.870;0.022;2022-07-12T12:26:19;23.50;66.30
37806;DHT22;25082;50.870;0.022;2022-07-12T12:28:52;23.60;66.60
37806;DHT22;25082;50.870;0.022;2022-07-12T12:31:20;23.60;66.50
37806;DHT22;25082;50.870;0.022;2022-07-12T12:33:51;23.60;66.50
37806;DHT22;25082;50.870;0.022;2022-07-12T12:36:22;23.60;66.80
37806;DHT22;25082;50.870;0.022;2022-07-12T12:38:58;23.60;66.70
37806;DHT22;25082;50.870;0.022;2022-07-12T12:41:25;23.70;66.50
37806;DHT22;25082;50.870;0.022;2022-07-12T12:44:05;23.60;66.20
37806;DHT22;25082;50.870;0.022;2022-07-12T12:49:19;23.60;65.80
37806;DHT22;25082;50.870;0.022;2022-07-12T12:51:57;23.70;65.80
37806;DHT22;25082;50.870;0.022;2022-07-12T12:54:33;23.60;66.10
37806;DHT22;25082;50.870;0.022;2022-07-12T12:56:59;23.60;66.40
37806;DHT22;25082;50.870;0.022;2022-07-12T12:59:25;23.60;66.40
37806;DHT22;25082;50.870;0.022;2022-07-12T13:01:50;23.60;66.30
37806;DHT22;25082;50.870;0.022;2022-07-12T13:04:16;23.60;66.50
37806;DHT22;25082;50.870;0.022;2022-07-12T13:06:42;23.60;66.60
37806;DHT22;25082;50.870;0.022;2022-07-12T13:09:08;23.60;67.10
37806;DHT22;25082;50.870;0.022;2022-07-12T13:11:33;23.60;67.30
37806;DHT22;25082;50.870;0.022;2022-07-12T13:13:59;23.70;67.20
37806;DHT22;25082;50.870;0.022;2022-07-12T13:16:26;23.70;67.10
37806;DHT22;25082;50.870;0.022;2022-07-12T13:18:51;23.70;66.90
37806;DHT22;25082;50.870;0.022;2022-07-12T13:21:17;23.70;66.70
37806;DHT22;25082;50.870;0.022;2022-07-12T13:23:43;23.70;66.30
37806;DHT22;25082;50.870;0.022;2022-07-12T13:26:10;23.70;67.40
37806;DHT22;25082;50.870;0.022;2022-07-12T13:28:36;23.70;66.50
37806;DHT22;25082;50.870;0.022;2022-07-12T13:31:01;23.70;67.20
37806;DHT22;25082;50.870;0.022;2022-07-12T13:33:27;23.70;66.90
37806;DHT22;25082;50.870;0.022;2022-07-12T13:35:53;23.80;66.90
37806;DHT22;25082;50.870;0.022;2022-07-12T13:38:19;23.80;66.80
37806;DHT22;25082;50.870;0.022;2022-07-12T13:40:45;23.80;66.90
37806;DHT22;25082;50.870;0.022;2022-07-12T13:43:11;23.70;66.80
37806;DHT22;25082;50.870;0.022;2022-07-12T13:45:37;23.80;67.00
37806;DHT22;25082;50.870;0.022;2022-07-12T13:48:03;23.80;67.10
37806;DHT22;25082;50.870;0.022;2022-07-12T13:50:32;23.80;67.20
37806;DHT22;25082;50.870;0.022;2022-07-12T13:52:58;23.80;67.30
37806;DHT22;25082;50.870;0.022;2022-07-12T13:55:25;23.80;67.20
37806;DHT22;25082;50.870;0.022;2022-07-12T13:57:51;23.80;67.00
37806;DHT22;25082;50.870;0.022;2022-07-12T14:00:17;23.80;67.20
37806;DHT22;25082;50.870;0.022;2022-07-12T14:02:48;23.80;67.90
37806;DHT22;25082;50.870;0.022;2022-07-12T14:05:14;23.80;67.70
37806;DHT22;25082;50.870;0.022;2022-07-12T14:07:41;23.80;67.50
37806;DHT22;25082;50.870;0.022;2022-07-12T14:10:09;23.90;67.60
37806;DHT22;25082;50.870;0.022;2022-07-12T14:12:36;23.80;67.50
37806;DHT22;25082;50.870;0.022;2022-07-12T14:15:02;23.80;67.50
37806;DHT22;25082;50.870;0.022;2022-07-12T14:17:38;23.80;67.20
37806;DHT22;25082;50.870;0.022;2022-07-12T14:20:05;23.80;67.40
37806;DHT22;25082;50.870;0.022;2022-07-12T14:22:31;23.80;67.40
37806;DHT22;25082;50.870;0.022;2022-07-12T14:24:58;23.90;67.00
37806;DHT22;25082;50.870;0.022;2022-07-12T14:27:23;23.90;66.90
37806;DHT22;25082;50.870;0.022;2022-07-12T14:29:49;23.90;66.80
37806;DHT22;25082;50.870;0.022;2022-07-12T14:32:15;23.80;66.80
37806;DHT22;25082;50.870;0.022;2022-07-12T14:34:41;23.80;66.80
37806;DHT22;25082;50.870;0.022;2022-07-12T14:37:07;23.80;67.10
37806;DHT22;25082;50.870;0.022;2022-07-12T14:39:33;23.90;67.50
37806;DHT22;25082;50.870;0.022;2022-07-12T14:41:59;23.90;67.40
37806;DHT22;25082;50.870;0.022;2022-07-12T14:44:25;23.90;67.40
37806;DHT22;25082;50.870;0.022;2022-07-12T14:46:52;23.90;67.30
37806;DHT22;25082;50.870;0.022;2022-07-12T14:49:21;23.90;67.10
37806;DHT22;25082;50.870;0.022;2022-07-12T14:51:47;23.90;67.30
37806;DHT22;25082;50.870;0.022;2022-07-12T14:54:13;23.90;67.20
37806;DHT22;25082;50.870;0.022;2022-07-12T14:56:39;23.80;66.90
37806;DHT22;25082;50.870;0.022;2022-07-12T14:59:05;23.90;66.80
37806;DHT22;25082;50.870;0.022;2022-07-12T15:01:31;23.80;66.40
37806;DHT22;25082;50.870;0.022;2022-07-12T15:03:58;23.80;66.50
37806;DHT22;25082;50.870;0.022;2022-07-12T15:06:23;23.80;66.30
37806;DHT22;25082;50.870;0.022;2022-07-12T15:08:52;23.90;66.30
37806;DHT22;25082;50.870;0.022;2022-07-12T15:11:18;23.80;66.30
37806;DHT22;25082;50.870;0.022;2022-07-12T15:13:44;23.80;66.10
37806;DHT22;25082;50.870;0.022;2022-07-12T15:16:10;23.80;66.00
37806;DHT22;25082;50.870;0.022;2022-07-12T15:18:35;23.80;65.90
37806;DHT22;25082;50.870;0.022;2022-07-12T15:21:03;23.80;66.00
37806;DHT22;25082;50.870;0.022;2022-07-12T15:23:29;23.80;65.90
37806;DHT22;25082;50.870;0.022;2022-07-12T15:25:56;23.80;65.70
37806;DHT22;25082;50.870;0.022;2022-07-12T15:28:24;23.70;65.50
37806;DHT22;25082;50.870;0.022;2022-07-12T15:30:50;23.80;65.70
37806;DHT22;25082;50.870;0.022;2022-07-12T15:33:16;23.70;65.80
37806;DHT22;25082;50.870;0.022;2022-07-12T15:35:42;23.70;65.60
37806;DHT22;25082;50.870;0.022;2022-07-12T15:38:07;23.70;65.70
37806;DHT22;25082;50.870;0.022;2022-07-12T15:40:37;23.70;65.60
37806;DHT22;25082;50.870;0.022;2022-07-12T15:43:03;23.70;65.80
37806;DHT22;25082;50.870;0.022;2022-07-12T15:45:29;23.70;66.00
37806;DHT22;25082;50.870;0.022;2022-07-12T15:47:55;23.70;66.10
37806;DHT22;25082;50.870;0.022;2022-07-12T15:50:21;23.70;66.20
37806;DHT22;25082;50.870;0.022;2022-07-12T15:52:47;23.70;66.30
37806;DHT22;25082;50.870;0.022;2022-07-12T15:55:32;23.70;66.40
37806;DHT22;25082;50.870;0.022;2022-07-12T15:57:58;23.70;66.40